الصفحة الرئيسية
METAR-TAF:

METAR-TAF

مطار :

كالي, كولومبيا

دائرة عرض: 03-33N, خط طول: 076-23W, ارتفاع: 961 متر

مراقبة الطقس الحالي

تاريخ ووقت الإصدار 42 دقيقة قبل الساعة 02:00UTC
ريح 5 عقدة من الشمال
درجة الحرارة 22°درجة مئوية
الرطوبة 88%
ضغط 1015 hPa
الرؤية 10 كم أو أكثر
غيوم قليلة على ارتفاع 3000 قدم

METAR: SKCL 250200Z 36005KT 9999 FEW030 22/20 Q1015 NOSIG

زمن: 21:42 (02:42 UTC)

توقعات

تاريخ ووقت الإصدار 4ساعات و 12 دقيقة قبل الساعة 22:30UTC
التوقعات صالحة من25 الساعة 00 UTC إلى 25 الساعة 24 UTC
ريح 5 عقدة من الشمال/الشمال الشرقي
الرؤية 10 كم أو أكثر
غيوم متفرقة على ارتفاع 2500 قدم
مؤقت
من 25 الساعة 20 UTC إلى 25 الساعة 24 UTC
ريح 12 عقدة من الشمال الغربي
غيوم متفرقة على ارتفاع 2000 قدم, مزن ركامية عمودية.

TAF: SKCL 242230Z 2500/2524 03005KT 9999 SCT025 TEMPO 2520/2524 32012KT SCT020TCU TX30/2520Z TN20/2511Z

أرصاد الطقس والتوقعات من أكثر من 4000 مطار (تقارير الطقس للمطار METAR والتنبؤ بالطقس بالمطارTAF).

المحطات المتاحة هي النقط الصفراء والحمراء على الخريطة.

حرك المؤشر فوق النقطة لمعرفة اسم المحطة.

ثم انقر لمعرفة أرصاد وتوقعات الطقس.

لتغيير الخارطة: اضغط على الأزرار الخضراء مع رمز الصليب الأسود للتكبير. على الزر الأخضر مع شرطة للتصغير، أو على الأسهم الخضراء للخرائط المجاورة.


METAR-TAF: